createdAt,value
2023-04-04T00:00:59.085Z,100793.31
2023-04-04T00:03:27.806Z,100791.91
2023-04-04T00:05:56.618Z,100785.53
2023-04-04T00:08:25.065Z,100804.16
2023-04-04T00:10:59.364Z,100808.09
2023-04-04T00:13:28.165Z,100805.53
2023-04-04T00:15:58.959Z,100803.00
2023-04-04T00:18:27.576Z,100793.19
2023-04-04T00:20:56.008Z,100791.75
2023-04-04T00:23:24.520Z,100789.09
2023-04-04T00:25:53.390Z,100792.28
2023-04-04T00:28:22.460Z,100777.38
2023-04-04T00:30:50.779Z,100777.66
2023-04-04T00:33:20.554Z,100779.91
2023-04-04T00:35:50.511Z,100777.91
2023-04-04T00:38:19.167Z,100772.53
2023-04-04T00:40:50.686Z,100770.38
2023-04-04T00:43:20.266Z,100761.25
2023-04-04T00:45:48.979Z,100769.75
2023-04-04T00:48:17.870Z,100771.13
2023-04-04T00:50:47.668Z,100762.16
2023-04-04T00:53:16.064Z,100748.50
2023-04-04T00:55:44.677Z,100755.53
2023-04-04T00:58:13.359Z,100755.53
2023-04-04T01:00:42.286Z,100751.03
2023-04-04T01:03:12.955Z,100761.69
2023-04-04T01:05:42.801Z,100764.88
2023-04-04T01:08:13.195Z,100751.69
2023-04-04T01:10:43.117Z,100742.03
2023-04-04T01:13:12.035Z,100743.28
2023-04-04T01:15:41.413Z,100731.91
2023-04-04T01:18:11.065Z,100740.19
2023-04-04T01:20:48.479Z,100747.22
2023-04-04T01:23:19.045Z,100734.69
2023-04-04T01:25:50.871Z,100749.63
2023-04-04T01:28:19.447Z,100743.69
2023-04-04T01:30:47.836Z,100746.31
2023-04-04T01:33:22.596Z,100748.66
2023-04-04T01:36:03.328Z,100753.34
2023-04-04T01:38:40.060Z,100750.34
2023-04-04T01:41:12.239Z,100761.00
2023-04-04T01:43:47.502Z,100763.28
2023-04-04T01:46:18.705Z,100770.47
2023-04-04T01:48:49.576Z,100777.47
2023-04-04T01:51:23.913Z,100731.69
2023-04-04T01:53:53.681Z,100776.88
2023-04-04T01:56:23.498Z,100783.16
2023-04-04T01:58:52.405Z,100790.75
2023-04-04T02:01:21.468Z,100783.50
2023-04-04T02:03:49.976Z,100773.72
2023-04-04T02:06:18.337Z,100778.72
2023-04-04T02:08:47.173Z,100774.59
2023-04-04T02:11:16.278Z,100766.66
2023-04-04T02:13:46.101Z,100776.31
2023-04-04T02:16:17.484Z,100771.25
2023-04-04T02:18:46.166Z,100766.53
2023-04-04T02:21:14.532Z,100768.66
2023-04-04T02:23:43.136Z,100774.34
2023-04-04T02:26:11.596Z,100770.97
2023-04-04T02:28:41.022Z,100775.09
2023-04-04T02:31:13.071Z,100773.72
2023-04-04T02:33:41.466Z,100771.47
2023-04-04T02:36:12.633Z,100769.13
2023-04-04T02:38:41.548Z,100782.19
2023-04-04T02:41:10.688Z,100770.56
2023-04-04T02:43:39.334Z,100776.00
2023-04-04T02:48:42.738Z,100781.69
2023-04-04T02:51:11.215Z,100774.44
2023-04-04T02:53:39.806Z,100777.63
2023-04-04T02:56:21.387Z,100767.59
2023-04-04T02:58:49.795Z,100768.91
2023-04-04T03:01:18.180Z,100766.59
2023-04-04T03:03:48.157Z,100722.66
2023-04-04T03:06:16.662Z,100755.28
2023-04-04T03:08:45.128Z,100756.13
2023-04-04T03:11:13.625Z,100756.97
2023-04-04T03:13:42.209Z,100751.91
2023-04-04T03:16:11.960Z,100751.91
2023-04-04T03:18:49.727Z,100754.81
2023-04-04T03:21:21.390Z,100749.25
2023-04-04T03:23:51.459Z,100754.06
2023-04-04T03:26:20.575Z,100758.88
2023-04-04T03:28:48.937Z,100754.88
2023-04-04T03:31:19.100Z,100761.69
2023-04-04T03:33:47.685Z,100755.03
2023-04-04T03:36:18.086Z,100757.94
2023-04-04T03:38:50.269Z,100756.56
2023-04-04T03:41:20.138Z,100762.38
2023-04-04T03:43:48.531Z,100754.81
2023-04-04T03:46:17.144Z,100762.28
2023-04-04T03:48:46.916Z,100768.69
2023-04-04T03:51:15.391Z,100764.47
2023-04-04T03:53:47.296Z,100777.03
2023-04-04T03:56:15.896Z,100777.03
2023-04-04T03:58:44.368Z,100781.63
2023-04-04T04:01:17.385Z,100779.34
2023-04-04T04:03:45.920Z,100778.59
2023-04-04T04:06:14.370Z,100778.00
2023-04-04T04:08:42.714Z,100762.44
2023-04-04T04:11:12.533Z,100781.16
2023-04-04T04:13:40.899Z,100783.94
2023-04-04T04:16:09.671Z,100782.13
2023-04-04T04:18:38.239Z,100787.56
2023-04-04T04:21:11.868Z,100785.03
2023-04-04T04:23:43.554Z,100794.69
2023-04-04T04:26:13.402Z,100796.63
2023-04-04T04:28:42.289Z,100789.84
2023-04-04T04:31:16.253Z,100798.06
2023-04-04T04:33:49.079Z,100802.75
2023-04-04T04:36:20.714Z,100803.50
2023-04-04T04:38:55.771Z,100803.22
2023-04-04T04:41:30.491Z,100786.22
2023-04-04T04:43:59.134Z,100806.03
2023-04-04T04:46:28.868Z,100808.44
2023-04-04T04:48:57.500Z,100806.50
2023-04-04T04:51:30.383Z,100812.31
2023-04-04T04:54:00.273Z,100803.97
2023-04-04T04:56:31.218Z,100806.75
2023-04-04T04:59:09.248Z,100808.06
2023-04-04T05:01:40.691Z,100815.56
2023-04-04T05:04:09.185Z,100811.09
2023-04-04T05:06:44.257Z,100827.41
2023-04-04T05:09:14.597Z,100824.13
2023-04-04T05:11:44.704Z,100830.19
2023-04-04T05:14:14.515Z,100815.81
2023-04-04T05:16:52.093Z,100835.97
2023-04-04T05:19:20.714Z,100831.50
2023-04-04T05:21:54.201Z,100837.19
2023-04-04T05:24:39.967Z,100842.50
2023-04-04T05:27:10.065Z,100836.34
2023-04-04T05:29:44.278Z,100845.72
2023-04-04T05:32:12.747Z,100854.22
2023-04-04T05:34:43.616Z,100854.44
2023-04-04T05:37:17.384Z,100853.94
2023-04-04T05:39:49.457Z,100858.50
2023-04-04T05:42:20.792Z,100866.81
2023-04-04T05:44:53.286Z,100867.56
2023-04-04T05:47:22.997Z,100866.81
2023-04-04T05:49:51.980Z,100872.38
2023-04-04T05:52:21.296Z,100871.75
2023-04-04T05:54:51.335Z,100868.03
2023-04-04T05:57:29.082Z,100874.91
2023-04-04T05:59:59.830Z,100871.19
2023-04-04T06:02:29.451Z,100868.91
2023-04-04T06:05:02.979Z,100875.19
2023-04-04T06:07:36.892Z,100882.69
2023-04-04T06:10:05.733Z,100892.25
2023-04-04T06:12:37.939Z,100905.47
2023-04-04T06:15:10.709Z,100918.16
2023-04-04T06:17:40.899Z,100876.38
2023-04-04T06:20:10.589Z,100926.94
2023-04-04T06:22:39.307Z,100934.03
2023-04-04T06:25:10.582Z,100931.28
2023-04-04T06:27:42.673Z,100940.94
2023-04-04T06:30:12.311Z,100947.16
2023-04-04T06:32:41.661Z,100942.91
2023-04-04T06:35:13.105Z,100944.22
2023-04-04T06:37:46.619Z,100938.91
2023-04-04T06:40:18.412Z,100946.03
2023-04-04T06:42:52.308Z,100953.09
2023-04-04T06:45:23.815Z,100939.66
2023-04-04T06:47:53.723Z,100958.09
2023-04-04T06:50:23.498Z,100955.69
2023-04-04T06:52:52.863Z,100953.34
2023-04-04T06:55:21.336Z,100960.63
2023-04-04T06:57:51.642Z,100963.50
2023-04-04T07:00:20.684Z,100953.28
2023-04-04T07:02:49.342Z,100957.94
2023-04-04T07:05:19.035Z,100951.50
2023-04-04T07:07:47.826Z,100962.00
2023-04-04T07:10:16.377Z,100957.09
2023-04-04T07:12:44.848Z,100950.03
2023-04-04T07:15:14.882Z,100957.78
2023-04-04T07:17:43.367Z,100955.03
2023-04-04T07:20:12.480Z,100962.94
2023-04-04T07:22:41.132Z,100954.81
2023-04-04T07:25:12.244Z,100959.91
2023-04-04T07:27:41.301Z,100954.28
2023-04-04T07:30:10.674Z,100959.66
2023-04-04T07:32:40.748Z,100957.84
2023-04-04T07:35:09.811Z,100955.84
2023-04-04T07:37:38.591Z,100971.19
2023-04-04T07:40:09.637Z,100965.81
2023-04-04T07:42:38.208Z,100956.22
2023-04-04T07:45:07.251Z,100958.78
2023-04-04T07:47:36.339Z,100954.00
2023-04-04T07:50:07.003Z,100948.34
2023-04-04T07:52:36.210Z,100950.47
2023-04-04T07:55:05.989Z,100954.13
2023-04-04T07:57:34.525Z,100966.25
2023-04-04T08:00:04.385Z,100959.06
2023-04-04T08:02:42.117Z,100959.63
2023-04-04T08:05:12.373Z,100959.25
2023-04-04T08:07:41.627Z,100969.66
2023-04-04T08:10:11.519Z,100969.69
2023-04-04T08:12:41.201Z,100966.03
2023-04-04T08:15:10.736Z,100972.81
2023-04-04T08:17:39.192Z,100966.47
2023-04-04T08:20:08.702Z,100967.88
2023-04-04T08:22:38.637Z,100979.00
2023-04-04T08:25:07.533Z,100980.25
2023-04-04T08:27:36.224Z,100984.03
2023-04-04T08:30:05.232Z,100989.06
2023-04-04T08:32:33.875Z,100986.28
2023-04-04T08:35:02.278Z,100990.31
2023-04-04T08:37:31.209Z,100992.63
2023-04-04T08:40:01.822Z,100988.50
2023-04-04T08:42:33.743Z,100988.81
2023-04-04T08:45:05.145Z,100989.16
2023-04-04T08:47:36.578Z,100984.16
2023-04-04T08:50:06.746Z,100948.06
2023-04-04T08:52:36.344Z,100989.56
2023-04-04T08:55:07.169Z,100977.28
2023-04-04T08:57:35.732Z,100987.38
2023-04-04T09:00:06.388Z,100993.28
2023-04-04T09:02:39.104Z,100988.97
2023-04-04T09:05:10.143Z,100982.16
2023-04-04T09:07:39.612Z,100983.84
2023-04-04T09:10:12.552Z,100990.38
2023-04-04T09:12:45.026Z,100986.88
2023-04-04T09:15:13.804Z,100999.00
2023-04-04T09:17:42.632Z,100965.72
2023-04-04T09:20:37.340Z,100991.59
2023-04-04T09:23:08.133Z,100996.25
2023-04-04T09:25:38.395Z,100999.38
2023-04-04T09:28:07.808Z,101004.59
2023-04-04T09:30:36.835Z,100968.25
2023-04-04T09:33:07.020Z,100990.72
2023-04-04T09:35:38.466Z,101000.28
2023-04-04T09:38:07.704Z,100987.69
2023-04-04T09:40:38.412Z,100999.28
2023-04-04T09:43:09.676Z,100994.59
2023-04-04T09:45:41.198Z,101004.56
2023-04-04T09:48:10.952Z,101009.41
2023-04-04T09:50:46.985Z,101017.22
2023-04-04T09:53:18.350Z,101020.44
2023-04-04T09:55:53.114Z,101027.66
2023-04-04T09:58:26.286Z,101009.72
2023-04-04T10:00:57.052Z,101015.75
2023-04-04T10:03:26.450Z,101011.56
2023-04-04T10:06:01.304Z,101006.97
2023-04-04T10:08:31.293Z,101006.00
2023-04-04T10:11:11.271Z,101012.78
2023-04-04T10:13:44.202Z,101016.41
2023-04-04T10:16:12.986Z,101010.06
2023-04-04T10:18:41.824Z,101004.25
2023-04-04T10:21:15.727Z,101013.72
2023-04-04T10:23:47.763Z,101012.41
2023-04-04T10:26:17.747Z,101007.06
2023-04-04T10:28:46.253Z,101001.16
2023-04-04T10:31:23.730Z,101001.84
2023-04-04T10:34:02.201Z,100987.53
2023-04-04T10:36:37.757Z,100907.94
2023-04-04T10:39:14.670Z,100999.81
2023-04-04T10:41:47.228Z,100995.28
2023-04-04T10:44:24.902Z,100971.72
2023-04-04T10:46:55.625Z,100987.69
2023-04-04T10:49:24.178Z,100982.94
2023-04-04T10:51:56.876Z,100983.44
2023-04-04T10:54:27.742Z,100986.66
2023-04-04T10:57:02.280Z,100980.84
2023-04-04T10:59:30.759Z,100995.34
2023-04-04T11:02:01.248Z,100987.94
2023-04-04T11:04:34.413Z,100970.69
2023-04-04T11:07:17.440Z,100976.06
2023-04-04T11:09:53.544Z,100982.13
2023-04-04T11:12:28.008Z,100962.31
2023-04-04T11:15:09.889Z,100973.59
2023-04-04T11:18:08.098Z,100970.41
2023-04-04T11:20:46.663Z,100960.09
2023-04-04T11:23:22.073Z,100897.16
2023-04-04T11:25:54.448Z,100956.13
2023-04-04T11:28:46.354Z,100927.84
2023-04-04T11:31:29.283Z,100959.81
2023-04-04T11:34:05.312Z,100948.63
2023-04-04T11:36:56.152Z,100954.22
2023-04-04T11:39:28.767Z,100940.84
2023-04-04T11:41:59.198Z,100939.63
2023-04-04T11:44:30.730Z,100930.31
2023-04-04T11:47:04.340Z,100909.44
2023-04-04T11:49:36.389Z,100923.41
2023-04-04T11:52:10.284Z,100893.78
2023-04-04T11:54:40.755Z,100912.06
2023-04-04T11:57:10.061Z,100910.38
2023-04-04T11:59:43.892Z,100901.66
2023-04-04T12:02:13.107Z,100907.09
2023-04-04T12:04:44.825Z,100901.03
2023-04-04T12:07:15.497Z,100903.81
2023-04-04T12:09:43.937Z,100893.09
2023-04-04T12:12:14.545Z,100893.66
2023-04-04T12:14:44.882Z,100893.13
2023-04-04T12:17:14.495Z,100894.06
2023-04-04T12:19:44.570Z,100877.75
2023-04-04T12:22:13.162Z,100884.94
2023-04-04T12:24:41.575Z,100888.47
2023-04-04T12:27:10.167Z,100880.19
2023-04-04T12:29:38.699Z,100876.56
2023-04-04T12:32:10.831Z,100872.38
2023-04-04T12:34:48.650Z,100868.63
2023-04-04T12:37:19.753Z,100864.16
2023-04-04T12:39:50.186Z,100859.59
2023-04-04T12:42:22.795Z,100865.38
2023-04-04T12:44:52.981Z,100854.09
2023-04-04T12:47:26.439Z,100862.84
2023-04-04T12:49:56.058Z,100861.16
2023-04-04T12:52:29.851Z,100860.59
2023-04-04T12:55:07.992Z,100851.22
2023-04-04T12:57:37.567Z,100845.34
2023-04-04T13:00:09.097Z,100843.13
2023-04-04T13:02:40.956Z,100834.50
2023-04-04T13:05:11.349Z,100839.00
2023-04-04T13:07:43.799Z,100802.13
2023-04-04T13:10:16.372Z,100833.41
2023-04-04T13:12:58.994Z,100830.78
2023-04-04T13:15:51.803Z,100815.84
2023-04-04T13:18:23.892Z,100814.44
2023-04-04T13:20:52.859Z,100812.75
2023-04-04T13:23:23.693Z,100802.97
2023-04-04T13:25:52.280Z,100808.00
2023-04-04T13:28:20.614Z,100815.66
2023-04-04T13:30:50.131Z,100821.63
2023-04-04T13:33:18.838Z,100812.69
2023-04-04T13:35:48.667Z,100812.56
2023-04-04T13:38:18.847Z,100783.22
2023-04-04T13:40:47.282Z,100816.22
2023-04-04T13:43:16.279Z,100795.91
2023-04-04T13:45:45.262Z,100807.84
2023-04-04T13:48:14.372Z,100803.53
2023-04-04T13:50:44.704Z,100803.88
2023-04-04T13:53:14.771Z,100788.41
2023-04-04T13:56:01.354Z,100798.47
2023-04-04T13:58:31.928Z,100791.41
2023-04-04T14:01:03.334Z,100799.72
2023-04-04T14:03:32.144Z,100798.16
2023-04-04T14:06:09.272Z,100799.09
2023-04-04T14:08:40.770Z,100793.59
2023-04-04T14:11:09.241Z,100767.16
2023-04-04T14:13:38.080Z,100790.91
2023-04-04T14:16:09.405Z,100796.31
2023-04-04T14:18:38.252Z,100787.00
2023-04-04T14:21:07.425Z,100780.69
2023-04-04T14:23:36.012Z,100780.88
2023-04-04T14:26:05.952Z,100775.28
2023-04-04T14:28:34.333Z,100777.69
2023-04-04T14:31:02.800Z,100773.13
2023-04-04T14:33:31.394Z,100778.72
2023-04-04T14:35:59.768Z,100760.28
2023-04-04T14:38:28.220Z,100776.97
2023-04-04T14:40:56.660Z,100778.06
2023-04-04T14:43:26.466Z,100769.69
2023-04-04T14:45:55.062Z,100782.81
2023-04-04T14:48:23.489Z,100773.47
2023-04-04T14:50:53.767Z,100782.69
2023-04-04T14:53:22.898Z,100777.41
2023-04-04T14:55:52.387Z,100777.84
2023-04-04T14:58:21.113Z,100774.06
2023-04-04T15:00:51.074Z,100781.44
2023-04-04T15:03:19.642Z,100781.06
2023-04-04T15:05:48.090Z,100786.28
2023-04-04T15:08:16.521Z,100795.97
2023-04-04T15:10:44.955Z,100782.25
2023-04-04T15:13:13.567Z,100794.28
2023-04-04T15:15:43.004Z,100791.66
2023-04-04T15:18:12.841Z,100798.47
2023-04-04T15:20:42.108Z,100796.16
2023-04-04T15:23:10.938Z,100794.50
2023-04-04T15:25:39.233Z,100800.63
2023-04-04T15:28:07.667Z,100801.38
2023-04-04T15:30:36.289Z,100802.09
2023-04-04T15:33:06.392Z,100810.75
2023-04-04T15:35:37.517Z,100811.41
2023-04-04T15:38:07.160Z,100814.69
2023-04-04T15:40:35.563Z,100805.16
2023-04-04T15:43:03.960Z,100810.66
2023-04-04T15:45:32.446Z,100810.38
2023-04-04T15:48:00.950Z,100819.78
2023-04-04T15:50:30.244Z,100818.00
2023-04-04T15:52:59.987Z,100819.22
2023-04-04T15:55:28.600Z,100824.72
2023-04-04T15:57:57.006Z,100825.94
2023-04-04T16:00:29.155Z,100742.22
2023-04-04T16:02:59.035Z,100855.19
2023-04-04T16:05:28.512Z,100844.88
2023-04-04T16:07:56.958Z,100847.31
2023-04-04T16:10:26.728Z,100847.47
2023-04-04T16:12:55.067Z,100846.28
2023-04-04T16:15:23.821Z,100842.28
2023-04-04T16:17:53.881Z,100844.34
2023-04-04T16:20:22.892Z,100848.09
2023-04-04T16:22:51.597Z,100846.25
2023-04-04T16:25:21.269Z,100855.44
2023-04-04T16:27:51.064Z,100854.09
2023-04-04T16:30:19.552Z,100850.94
2023-04-04T16:32:47.992Z,100848.63
2023-04-04T16:35:16.719Z,100849.81
2023-04-04T16:37:45.030Z,100857.22
2023-04-04T16:40:15.629Z,100852.34
2023-04-04T16:42:44.070Z,100847.47
2023-04-04T16:45:14.211Z,100845.97
2023-04-04T16:47:42.626Z,100861.47
2023-04-04T16:50:11.994Z,100855.09
2023-04-04T16:52:40.456Z,100852.44
2023-04-04T16:55:10.444Z,100852.09
2023-04-04T16:57:38.936Z,100849.09
2023-04-04T17:00:10.145Z,100861.72
2023-04-04T17:02:45.755Z,100861.03
2023-04-04T17:05:15.180Z,100858.50
2023-04-04T17:07:43.582Z,100855.97
2023-04-04T17:10:12.569Z,100876.66
2023-04-04T17:12:41.004Z,100876.16
2023-04-04T17:15:10.339Z,100875.66
2023-04-04T17:17:40.586Z,100878.34
2023-04-04T17:20:17.720Z,100882.53
2023-04-04T17:22:47.664Z,100877.63
2023-04-04T17:25:16.020Z,100878.81
2023-04-04T17:27:45.432Z,100882.00
2023-04-04T17:30:14.727Z,100882.00
2023-04-04T17:32:44.666Z,100887.69
2023-04-04T17:35:13.074Z,100884.00
2023-04-04T17:37:41.852Z,100882.31
2023-04-04T17:40:11.001Z,100893.38
2023-04-04T17:42:39.325Z,100892.66
2023-04-04T17:45:09.649Z,100897.69
2023-04-04T17:47:38.050Z,100904.72
2023-04-04T17:50:10.314Z,100909.03
2023-04-04T17:52:39.047Z,100908.34
2023-04-04T17:55:08.804Z,100911.25
2023-04-04T17:57:37.160Z,100919.56
2023-04-04T18:00:06.357Z,100928.13
2023-04-04T18:02:36.398Z,100925.91
2023-04-04T18:05:05.413Z,100934.44
2023-04-04T18:07:35.298Z,100938.72
2023-04-04T18:10:03.727Z,100935.47
2023-04-04T18:12:35.279Z,100941.09
2023-04-04T18:15:04.911Z,100944.84
2023-04-04T18:17:33.574Z,100953.00
2023-04-04T18:20:04.465Z,100958.47
2023-04-04T18:22:35.945Z,100966.50
2023-04-04T18:25:04.541Z,100963.47
2023-04-04T18:27:32.910Z,100970.56
2023-04-04T18:30:01.320Z,100979.09
2023-04-04T18:32:31.383Z,100994.13
2023-04-04T18:35:02.056Z,101003.03
2023-04-04T18:37:31.071Z,101007.44
2023-04-04T18:40:01.018Z,101015.47
2023-04-04T18:42:29.528Z,101017.44
2023-04-04T18:44:57.943Z,101023.50
2023-04-04T18:47:27.333Z,101019.47
2023-04-04T18:49:55.737Z,101030.00
2023-04-04T18:52:24.241Z,101040.75
2023-04-04T18:54:52.583Z,101037.91
2023-04-04T18:57:22.428Z,101044.44
2023-04-04T18:59:50.846Z,101054.28
2023-04-04T19:02:19.415Z,101050.31
2023-04-04T19:04:48.990Z,101055.81
2023-04-04T19:07:21.989Z,101057.91
2023-04-04T19:09:51.528Z,101065.22
2023-04-04T19:12:19.869Z,101068.19
2023-04-04T19:14:49.694Z,101076.34
2023-04-04T19:17:18.301Z,101075.91
2023-04-04T19:19:47.461Z,101081.50
2023-04-04T19:22:15.988Z,101091.06
2023-04-04T19:24:44.390Z,101093.06
2023-04-04T19:27:13.040Z,101084.28
2023-04-04T19:29:41.664Z,101096.53
2023-04-04T19:32:15.105Z,101103.41
2023-04-04T19:34:44.300Z,101048.50
2023-04-04T19:37:12.975Z,101107.31
2023-04-04T19:39:43.873Z,101111.78
2023-04-04T19:42:12.407Z,101114.84
2023-04-04T19:44:41.687Z,101117.63
2023-04-04T19:47:13.404Z,101119.97
2023-04-04T19:49:42.351Z,101124.84
2023-04-04T19:52:10.891Z,101127.09
2023-04-04T19:54:42.890Z,101132.06
2023-04-04T19:57:19.661Z,101137.63
2023-04-04T20:00:13.559Z,101140.88
2023-04-04T20:02:58.183Z,101147.56
2023-04-04T20:05:55.423Z,101153.53
2023-04-04T20:08:23.854Z,101153.66
2023-04-04T20:10:57.430Z,101153.19
2023-04-04T20:13:25.915Z,101150.75
2023-04-04T20:16:01.729Z,101155.84
2023-04-04T20:18:33.307Z,101163.47
2023-04-04T20:21:08.448Z,101171.13
2023-04-04T20:23:48.687Z,101160.72
2023-04-04T20:26:51.324Z,101170.88
2023-04-04T20:29:21.824Z,101172.22
2023-04-04T20:31:52.286Z,101124.09
2023-04-04T20:34:42.913Z,101183.22
2023-04-04T20:37:14.150Z,101184.47
2023-04-04T20:39:48.808Z,101182.66
2023-04-04T20:42:40.232Z,101189.75
2023-04-04T20:45:39.075Z,101194.31
2023-04-04T20:48:08.204Z,101178.19
2023-04-04T20:50:48.026Z,101199.34
2023-04-04T20:53:20.415Z,101201.84
2023-04-04T20:55:50.720Z,101199.34
2023-04-04T20:58:28.202Z,101196.94
2023-04-04T21:00:58.217Z,101189.09
2023-04-04T21:03:36.788Z,101197.72
2023-04-04T21:06:15.346Z,101198.50
2023-04-04T21:08:47.315Z,101199.13
2023-04-04T21:11:24.286Z,101193.41
2023-04-04T21:13:52.777Z,101203.84
2023-04-04T21:16:25.769Z,101202.47
2023-04-04T21:18:59.079Z,101196.81
2023-04-04T21:21:29.887Z,101207.56
2023-04-04T21:24:00.053Z,101203.84
2023-04-04T21:26:32.032Z,101203.19
2023-04-04T21:29:03.723Z,101204.66
2023-04-04T21:31:37.377Z,101207.84
2023-04-04T21:34:14.361Z,101213.78
2023-04-04T21:36:44.781Z,101213.63
2023-04-04T21:39:14.533Z,101215.41
2023-04-04T21:41:45.153Z,101215.66
2023-04-04T21:44:15.160Z,101217.66
2023-04-04T21:46:43.658Z,101228.78
2023-04-04T21:49:12.368Z,101221.38
2023-04-04T21:51:40.753Z,101235.19
2023-04-04T21:54:10.949Z,101230.28
2023-04-04T21:56:39.440Z,101237.50
2023-04-04T21:59:10.254Z,101241.31
2023-04-04T22:01:40.867Z,101246.28
2023-04-04T22:04:09.553Z,101242.22
2023-04-04T22:06:37.952Z,101248.97
2023-04-04T22:09:06.671Z,101247.47
2023-04-04T22:11:42.929Z,101246.28
2023-04-04T22:14:17.820Z,101258.03
2023-04-04T22:16:46.960Z,101254.38
2023-04-04T22:19:15.502Z,101251.97
2023-04-04T22:21:48.036Z,101257.84
2023-04-04T22:24:18.298Z,101254.44
2023-04-04T22:26:50.703Z,101235.16
2023-04-04T22:29:19.247Z,101241.88
2023-04-04T22:31:48.589Z,101255.22
2023-04-04T22:34:17.094Z,101249.69
2023-04-04T22:36:45.460Z,101255.09
2023-04-04T22:39:16.370Z,101250.00
2023-04-04T22:41:45.692Z,101246.50
2023-04-04T22:44:15.640Z,101122.31
2023-04-04T22:46:44.047Z,101260.97
2023-04-04T22:49:13.617Z,101269.03
2023-04-04T22:51:45.593Z,101276.59
2023-04-04T22:54:16.738Z,101279.25
2023-04-04T22:56:45.991Z,101275.44
2023-04-04T22:59:15.946Z,101275.66
2023-04-04T23:01:44.689Z,101278.31
2023-04-04T23:04:13.554Z,101280.94
2023-04-04T23:06:45.089Z,101277.31
2023-04-04T23:09:13.780Z,101275.25
2023-04-04T23:11:42.086Z,101290.66
2023-04-04T23:14:15.308Z,101289.13
2023-04-04T23:16:45.220Z,101288.47
2023-04-04T23:19:13.990Z,101242.69
2023-04-04T23:21:42.482Z,101283.16
2023-04-04T23:24:10.954Z,101272.50
2023-04-04T23:26:39.326Z,101284.06
2023-04-04T23:29:07.711Z,101275.63
2023-04-04T23:31:36.553Z,101279.53
2023-04-04T23:34:06.484Z,101272.72
2023-04-04T23:36:34.857Z,101284.66
2023-04-04T23:39:03.728Z,101278.19
2023-04-04T23:41:32.347Z,101282.97
2023-04-04T23:44:00.658Z,101281.19
2023-04-04T23:46:30.546Z,101280.06
2023-04-04T23:48:58.842Z,101279.06
2023-04-04T23:51:30.527Z,101280.69
2023-04-04T23:53:58.981Z,101281.44
2023-04-04T23:56:27.335Z,101289.22
2023-04-04T23:58:55.735Z,101286.56
